sensor_id;sensor_type;location;lat;lon;timestamp;P1;durP1;ratioP1;P2;durP2;ratioP2
20302;SDS011;10310;50.906;4.622;2022-08-05T00:00:16;10.20;;;8.30;;
20302;SDS011;10310;50.906;4.622;2022-08-05T00:02:44;14.47;;;8.43;;
20302;SDS011;10310;50.906;4.622;2022-08-05T00:05:12;8.53;;;7.43;;
20302;SDS011;10310;50.906;4.622;2022-08-05T00:07:41;9.77;;;7.13;;
20302;SDS011;10310;50.906;4.622;2022-08-05T00:10:09;9.53;;;6.80;;
20302;SDS011;10310;50.906;4.622;2022-08-05T00:12:36;8.23;;;6.63;;
20302;SDS011;10310;50.906;4.622;2022-08-05T00:15:03;9.83;;;7.10;;
20302;SDS011;10310;50.906;4.622;2022-08-05T00:17:31;7.87;;;6.27;;
20302;SDS011;10310;50.906;4.622;2022-08-05T00:19:58;8.97;;;6.07;;
20302;SDS011;10310;50.906;4.622;2022-08-05T00:22:25;8.60;;;6.17;;
20302;SDS011;10310;50.906;4.622;2022-08-05T00:24:54;7.87;;;5.83;;
20302;SDS011;10310;50.906;4.622;2022-08-05T00:27:20;7.83;;;5.97;;
20302;SDS011;10310;50.906;4.622;2022-08-05T00:29:50;8.07;;;6.13;;
20302;SDS011;10310;50.906;4.622;2022-08-05T00:32:17;8.83;;;6.50;;
20302;SDS011;10310;50.906;4.622;2022-08-05T00:34:44;9.53;;;6.23;;
20302;SDS011;10310;50.906;4.622;2022-08-05T00:37:11;10.70;;;6.43;;
20302;SDS011;10310;50.906;4.622;2022-08-05T00:39:38;8.37;;;6.43;;
20302;SDS011;10310;50.906;4.622;2022-08-05T00:42:08;11.03;;;6.93;;
20302;SDS011;10310;50.906;4.622;2022-08-05T00:44:35;12.03;;;7.07;;
20302;SDS011;10310;50.906;4.622;2022-08-05T00:47:01;7.73;;;6.97;;
20302;SDS011;10310;50.906;4.622;2022-08-05T00:49:28;11.40;;;7.50;;
20302;SDS011;10310;50.906;4.622;2022-08-05T00:51:55;10.67;;;8.60;;
20302;SDS011;10310;50.906;4.622;2022-08-05T00:54:22;12.47;;;8.20;;
20302;SDS011;10310;50.906;4.622;2022-08-05T00:56:49;12.63;;;8.07;;
20302;SDS011;10310;50.906;4.622;2022-08-05T00:59:17;11.90;;;7.87;;
20302;SDS011;10310;50.906;4.622;2022-08-05T01:01:44;10.97;;;8.00;;
20302;SDS011;10310;50.906;4.622;2022-08-05T01:04:11;10.00;;;7.77;;
20302;SDS011;10310;50.906;4.622;2022-08-05T01:06:38;10.83;;;7.83;;
20302;SDS011;10310;50.906;4.622;2022-08-05T01:09:05;12.87;;;8.90;;
20302;SDS011;10310;50.906;4.622;2022-08-05T01:11:33;11.63;;;9.13;;
20302;SDS011;10310;50.906;4.622;2022-08-05T01:14:03;13.13;;;9.47;;
20302;SDS011;10310;50.906;4.622;2022-08-05T01:16:42;14.17;;;9.50;;
20302;SDS011;10310;50.906;4.622;2022-08-05T01:19:25;14.63;;;9.70;;
20302;SDS011;10310;50.906;4.622;2022-08-05T01:22:07;13.60;;;9.40;;
20302;SDS011;10310;50.906;4.622;2022-08-05T01:24:46;13.53;;;9.33;;
20302;SDS011;10310;50.906;4.622;2022-08-05T01:27:27;12.37;;;9.10;;
20302;SDS011;10310;50.906;4.622;2022-08-05T01:30:17;10.83;;;8.37;;
20302;SDS011;10310;50.906;4.622;2022-08-05T01:32:45;14.13;;;9.33;;
20302;SDS011;10310;50.906;4.622;2022-08-05T01:35:15;13.47;;;8.30;;
20302;SDS011;10310;50.906;4.622;2022-08-05T01:37:45;12.37;;;9.30;;
20302;SDS011;10310;50.906;4.622;2022-08-05T01:40:15;12.60;;;9.43;;
20302;SDS011;10310;50.906;4.622;2022-08-05T01:42:44;9.83;;;8.83;;
20302;SDS011;10310;50.906;4.622;2022-08-05T01:45:13;10.97;;;8.53;;
20302;SDS011;10310;50.906;4.622;2022-08-05T01:47:41;11.90;;;8.60;;
20302;SDS011;10310;50.906;4.622;2022-08-05T01:50:11;17.70;;;9.37;;
20302;SDS011;10310;50.906;4.622;2022-08-05T01:52:43;14.03;;;9.70;;
20302;SDS011;10310;50.906;4.622;2022-08-05T01:55:12;10.33;;;8.80;;
20302;SDS011;10310;50.906;4.622;2022-08-05T01:57:42;14.77;;;8.90;;
20302;SDS011;10310;50.906;4.622;2022-08-05T02:00:12;11.73;;;8.80;;
20302;SDS011;10310;50.906;4.622;2022-08-05T02:02:42;11.33;;;8.93;;
20302;SDS011;10310;50.906;4.622;2022-08-05T02:05:13;10.63;;;9.40;;
20302;SDS011;10310;50.906;4.622;2022-08-05T02:07:42;10.53;;;8.77;;
20302;SDS011;10310;50.906;4.622;2022-08-05T02:10:09;12.03;;;9.07;;
20302;SDS011;10310;50.906;4.622;2022-08-05T02:12:37;12.90;;;8.57;;
20302;SDS011;10310;50.906;4.622;2022-08-05T02:15:12;9.67;;;8.67;;
20302;SDS011;10310;50.906;4.622;2022-08-05T02:17:47;10.50;;;8.10;;
20302;SDS011;10310;50.906;4.622;2022-08-05T02:20:18;14.03;;;8.17;;
20302;SDS011;10310;50.906;4.622;2022-08-05T02:22:49;10.00;;;7.67;;
20302;SDS011;10310;50.906;4.622;2022-08-05T02:25:21;10.87;;;8.90;;
20302;SDS011;10310;50.906;4.622;2022-08-05T02:27:51;8.87;;;7.83;;
20302;SDS011;10310;50.906;4.622;2022-08-05T02:30:22;10.67;;;7.90;;
20302;SDS011;10310;50.906;4.622;2022-08-05T02:32:51;12.10;;;8.40;;
20302;SDS011;10310;50.906;4.622;2022-08-05T02:35:21;9.27;;;8.37;;
20302;SDS011;10310;50.906;4.622;2022-08-05T02:37:50;9.30;;;8.27;;
20302;SDS011;10310;50.906;4.622;2022-08-05T02:40:19;9.03;;;8.07;;
20302;SDS011;10310;50.906;4.622;2022-08-05T02:42:47;10.27;;;8.03;;
20302;SDS011;10310;50.906;4.622;2022-08-05T02:45:15;11.37;;;8.30;;
20302;SDS011;10310;50.906;4.622;2022-08-05T02:47:45;13.20;;;8.97;;
20302;SDS011;10310;50.906;4.622;2022-08-05T02:50:13;11.53;;;8.47;;
20302;SDS011;10310;50.906;4.622;2022-08-05T02:52:40;10.57;;;8.43;;
20302;SDS011;10310;50.906;4.622;2022-08-05T02:55:10;9.60;;;8.07;;
20302;SDS011;10310;50.906;4.622;2022-08-05T02:57:38;11.73;;;8.00;;
20302;SDS011;10310;50.906;4.622;2022-08-05T03:00:07;11.80;;;8.40;;
20302;SDS011;10310;50.906;4.622;2022-08-05T03:02:38;12.27;;;8.30;;
20302;SDS011;10310;50.906;4.622;2022-08-05T03:05:09;13.00;;;9.07;;
20302;SDS011;10310;50.906;4.622;2022-08-05T03:07:37;14.50;;;8.30;;
20302;SDS011;10310;50.906;4.622;2022-08-05T03:10:06;10.53;;;8.47;;
20302;SDS011;10310;50.906;4.622;2022-08-05T03:12:36;12.73;;;8.47;;
20302;SDS011;10310;50.906;4.622;2022-08-05T03:15:05;12.47;;;8.33;;
20302;SDS011;10310;50.906;4.622;2022-08-05T03:17:34;11.40;;;8.50;;
20302;SDS011;10310;50.906;4.622;2022-08-05T03:20:01;11.83;;;8.77;;
20302;SDS011;10310;50.906;4.622;2022-08-05T03:22:30;13.70;;;8.23;;
20302;SDS011;10310;50.906;4.622;2022-08-05T03:24:56;12.43;;;7.83;;
20302;SDS011;10310;50.906;4.622;2022-08-05T03:27:24;10.10;;;8.27;;
20302;SDS011;10310;50.906;4.622;2022-08-05T03:29:52;13.67;;;8.87;;
20302;SDS011;10310;50.906;4.622;2022-08-05T03:32:20;9.23;;;8.27;;
20302;SDS011;10310;50.906;4.622;2022-08-05T03:34:47;14.13;;;8.30;;
20302;SDS011;10310;50.906;4.622;2022-08-05T03:37:14;9.60;;;8.07;;
20302;SDS011;10310;50.906;4.622;2022-08-05T03:39:52;11.63;;;8.80;;
20302;SDS011;10310;50.906;4.622;2022-08-05T03:42:21;11.40;;;8.80;;
20302;SDS011;10310;50.906;4.622;2022-08-05T03:44:48;15.33;;;10.00;;
20302;SDS011;10310;50.906;4.622;2022-08-05T03:47:15;16.17;;;9.50;;
20302;SDS011;10310;50.906;4.622;2022-08-05T03:49:41;12.27;;;9.43;;
20302;SDS011;10310;50.906;4.622;2022-08-05T03:52:09;13.47;;;9.37;;
20302;SDS011;10310;50.906;4.622;2022-08-05T03:54:39;15.20;;;9.60;;
20302;SDS011;10310;50.906;4.622;2022-08-05T03:57:12;14.20;;;10.87;;
20302;SDS011;10310;50.906;4.622;2022-08-05T03:59:41;18.13;;;10.60;;
20302;SDS011;10310;50.906;4.622;2022-08-05T04:02:11;11.67;;;9.67;;
20302;SDS011;10310;50.906;4.622;2022-08-05T04:04:40;13.97;;;10.43;;
20302;SDS011;10310;50.906;4.622;2022-08-05T04:07:08;16.00;;;10.23;;
20302;SDS011;10310;50.906;4.622;2022-08-05T04:09:37;18.30;;;10.67;;
20302;SDS011;10310;50.906;4.622;2022-08-05T04:12:04;14.57;;;10.57;;
20302;SDS011;10310;50.906;4.622;2022-08-05T04:14:34;15.60;;;10.80;;
20302;SDS011;10310;50.906;4.622;2022-08-05T04:17:01;13.07;;;10.60;;
20302;SDS011;10310;50.906;4.622;2022-08-05T04:19:29;13.03;;;10.57;;
20302;SDS011;10310;50.906;4.622;2022-08-05T04:21:56;11.40;;;9.87;;
20302;SDS011;10310;50.906;4.622;2022-08-05T04:24:22;15.90;;;10.03;;
20302;SDS011;10310;50.906;4.622;2022-08-05T04:26:50;14.73;;;10.43;;
20302;SDS011;10310;50.906;4.622;2022-08-05T04:29:17;14.00;;;9.83;;
20302;SDS011;10310;50.906;4.622;2022-08-05T04:31:45;17.23;;;10.20;;
20302;SDS011;10310;50.906;4.622;2022-08-05T04:34:13;15.37;;;10.03;;
20302;SDS011;10310;50.906;4.622;2022-08-05T04:36:40;18.33;;;10.70;;
20302;SDS011;10310;50.906;4.622;2022-08-05T04:39:07;16.77;;;10.67;;
20302;SDS011;10310;50.906;4.622;2022-08-05T04:41:34;17.60;;;10.23;;
20302;SDS011;10310;50.906;4.622;2022-08-05T04:44:00;12.20;;;10.67;;
20302;SDS011;10310;50.906;4.622;2022-08-05T04:46:27;15.43;;;10.00;;
20302;SDS011;10310;50.906;4.622;2022-08-05T04:48:56;16.50;;;10.10;;
20302;SDS011;10310;50.906;4.622;2022-08-05T04:51:23;14.13;;;10.30;;
20302;SDS011;10310;50.906;4.622;2022-08-05T04:53:49;16.83;;;10.03;;
20302;SDS011;10310;50.906;4.622;2022-08-05T04:56:16;16.37;;;11.00;;
20302;SDS011;10310;50.906;4.622;2022-08-05T04:58:43;16.90;;;10.80;;
20302;SDS011;10310;50.906;4.622;2022-08-05T05:01:10;13.77;;;10.37;;
20302;SDS011;10310;50.906;4.622;2022-08-05T05:03:37;12.43;;;9.83;;
20302;SDS011;10310;50.906;4.622;2022-08-05T05:06:08;14.63;;;10.03;;
20302;SDS011;10310;50.906;4.622;2022-08-05T05:08:35;17.73;;;10.80;;
20302;SDS011;10310;50.906;4.622;2022-08-05T05:11:02;14.50;;;10.20;;
20302;SDS011;10310;50.906;4.622;2022-08-05T05:13:29;12.70;;;10.20;;
20302;SDS011;10310;50.906;4.622;2022-08-05T05:15:56;11.03;;;9.20;;
20302;SDS011;10310;50.906;4.622;2022-08-05T05:18:23;15.57;;;10.17;;
20302;SDS011;10310;50.906;4.622;2022-08-05T05:20:50;14.83;;;9.93;;
20302;SDS011;10310;50.906;4.622;2022-08-05T05:23:18;13.17;;;9.50;;
20302;SDS011;10310;50.906;4.622;2022-08-05T05:25:45;14.17;;;9.50;;
20302;SDS011;10310;50.906;4.622;2022-08-05T05:28:12;14.40;;;9.77;;
20302;SDS011;10310;50.906;4.622;2022-08-05T05:30:39;11.13;;;9.27;;
20302;SDS011;10310;50.906;4.622;2022-08-05T05:33:06;14.43;;;9.80;;
20302;SDS011;10310;50.906;4.622;2022-08-05T05:35:33;12.30;;;9.63;;
20302;SDS011;10310;50.906;4.622;2022-08-05T05:38:01;14.97;;;9.90;;
20302;SDS011;10310;50.906;4.622;2022-08-05T05:40:30;12.60;;;9.53;;
20302;SDS011;10310;50.906;4.622;2022-08-05T05:42:57;14.13;;;10.00;;
20302;SDS011;10310;50.906;4.622;2022-08-05T05:45:24;13.63;;;9.13;;
20302;SDS011;10310;50.906;4.622;2022-08-05T05:47:51;13.17;;;9.20;;
20302;SDS011;10310;50.906;4.622;2022-08-05T05:50:18;11.77;;;8.67;;
20302;SDS011;10310;50.906;4.622;2022-08-05T05:52:46;11.83;;;8.67;;
20302;SDS011;10310;50.906;4.622;2022-08-05T05:55:13;13.77;;;8.60;;
20302;SDS011;10310;50.906;4.622;2022-08-05T05:57:43;14.27;;;8.20;;
20302;SDS011;10310;50.906;4.622;2022-08-05T06:00:12;15.77;;;8.40;;
20302;SDS011;10310;50.906;4.622;2022-08-05T06:02:41;13.13;;;8.27;;
20302;SDS011;10310;50.906;4.622;2022-08-05T06:05:09;11.90;;;8.53;;
20302;SDS011;10310;50.906;4.622;2022-08-05T06:07:37;14.50;;;7.83;;
20302;SDS011;10310;50.906;4.622;2022-08-05T06:10:05;11.60;;;8.10;;
20302;SDS011;10310;50.906;4.622;2022-08-05T06:12:33;11.80;;;8.03;;
20302;SDS011;10310;50.906;4.622;2022-08-05T06:15:02;13.93;;;8.03;;
20302;SDS011;10310;50.906;4.622;2022-08-05T06:17:30;14.43;;;8.00;;
20302;SDS011;10310;50.906;4.622;2022-08-05T06:19:57;10.13;;;7.97;;
20302;SDS011;10310;50.906;4.622;2022-08-05T06:22:25;9.53;;;7.80;;
20302;SDS011;10310;50.906;4.622;2022-08-05T06:24:53;13.43;;;8.27;;
20302;SDS011;10310;50.906;4.622;2022-08-05T06:27:20;12.43;;;8.40;;
20302;SDS011;10310;50.906;4.622;2022-08-05T06:29:46;12.53;;;8.10;;
20302;SDS011;10310;50.906;4.622;2022-08-05T06:32:15;9.60;;;7.33;;
20302;SDS011;10310;50.906;4.622;2022-08-05T06:34:42;10.97;;;7.80;;
20302;SDS011;10310;50.906;4.622;2022-08-05T06:37:09;11.10;;;8.33;;
20302;SDS011;10310;50.906;4.622;2022-08-05T06:39:35;11.07;;;8.20;;
20302;SDS011;10310;50.906;4.622;2022-08-05T06:42:03;13.13;;;8.10;;
20302;SDS011;10310;50.906;4.622;2022-08-05T06:44:30;13.73;;;8.00;;
20302;SDS011;10310;50.906;4.622;2022-08-05T06:46:57;13.37;;;7.90;;
20302;SDS011;10310;50.906;4.622;2022-08-05T06:49:26;10.70;;;8.50;;
20302;SDS011;10310;50.906;4.622;2022-08-05T06:51:52;11.67;;;8.17;;
20302;SDS011;10310;50.906;4.622;2022-08-05T06:54:19;12.23;;;7.90;;
20302;SDS011;10310;50.906;4.622;2022-08-05T06:56:46;11.07;;;8.17;;
20302;SDS011;10310;50.906;4.622;2022-08-05T06:59:13;11.60;;;7.53;;
20302;SDS011;10310;50.906;4.622;2022-08-05T07:01:40;12.57;;;8.33;;
20302;SDS011;10310;50.906;4.622;2022-08-05T07:04:07;13.77;;;7.80;;
20302;SDS011;10310;50.906;4.622;2022-08-05T07:06:35;10.17;;;8.53;;
20302;SDS011;10310;50.906;4.622;2022-08-05T07:09:02;10.40;;;7.47;;
20302;SDS011;10310;50.906;4.622;2022-08-05T07:11:29;13.73;;;8.20;;
20302;SDS011;10310;50.906;4.622;2022-08-05T07:13:57;11.53;;;7.80;;
20302;SDS011;10310;50.906;4.622;2022-08-05T07:16:41;10.90;;;8.20;;
20302;SDS011;10310;50.906;4.622;2022-08-05T07:19:23;12.53;;;7.67;;
20302;SDS011;10310;50.906;4.622;2022-08-05T07:21:52;12.07;;;7.23;;
20302;SDS011;10310;50.906;4.622;2022-08-05T07:24:21;12.70;;;7.73;;
20302;SDS011;10310;50.906;4.622;2022-08-05T07:26:48;11.13;;;7.80;;
20302;SDS011;10310;50.906;4.622;2022-08-05T07:29:15;9.37;;;7.33;;
20302;SDS011;10310;50.906;4.622;2022-08-05T07:31:42;12.97;;;7.90;;
20302;SDS011;10310;50.906;4.622;2022-08-05T07:34:09;10.77;;;6.47;;
20302;SDS011;10310;50.906;4.622;2022-08-05T07:36:36;9.00;;;6.87;;
20302;SDS011;10310;50.906;4.622;2022-08-05T07:39:05;9.00;;;6.53;;
20302;SDS011;10310;50.906;4.622;2022-08-05T07:41:33;10.40;;;7.27;;
20302;SDS011;10310;50.906;4.622;2022-08-05T07:44:00;8.00;;;7.13;;
20302;SDS011;10310;50.906;4.622;2022-08-05T07:46:28;9.87;;;7.20;;
20302;SDS011;10310;50.906;4.622;2022-08-05T07:48:57;8.53;;;6.07;;
20302;SDS011;10310;50.906;4.622;2022-08-05T07:51:25;13.70;;;7.10;;
20302;SDS011;10310;50.906;4.622;2022-08-05T07:53:52;9.17;;;6.37;;
20302;SDS011;10310;50.906;4.622;2022-08-05T07:56:20;7.47;;;6.43;;
20302;SDS011;10310;50.906;4.622;2022-08-05T07:58:47;9.87;;;6.10;;
20302;SDS011;10310;50.906;4.622;2022-08-05T08:01:14;9.67;;;6.17;;
20302;SDS011;10310;50.906;4.622;2022-08-05T08:03:41;8.03;;;5.43;;
20302;SDS011;10310;50.906;4.622;2022-08-05T08:06:07;10.97;;;5.90;;
20302;SDS011;10310;50.906;4.622;2022-08-05T08:08:34;10.40;;;5.37;;
20302;SDS011;10310;50.906;4.622;2022-08-05T08:11:01;9.97;;;5.40;;
20302;SDS011;10310;50.906;4.622;2022-08-05T08:13:29;6.23;;;5.30;;
20302;SDS011;10310;50.906;4.622;2022-08-05T08:15:56;6.67;;;5.17;;
20302;SDS011;10310;50.906;4.622;2022-08-05T08:18:23;9.00;;;5.13;;
20302;SDS011;10310;50.906;4.622;2022-08-05T08:20:50;9.03;;;5.23;;
20302;SDS011;10310;50.906;4.622;2022-08-05T08:23:17;9.83;;;5.83;;
20302;SDS011;10310;50.906;4.622;2022-08-05T08:25:44;8.53;;;5.03;;
20302;SDS011;10310;50.906;4.622;2022-08-05T08:28:11;7.97;;;4.77;;
20302;SDS011;10310;50.906;4.622;2022-08-05T08:30:40;8.93;;;4.87;;
20302;SDS011;10310;50.906;4.622;2022-08-05T08:33:07;7.33;;;4.80;;
20302;SDS011;10310;50.906;4.622;2022-08-05T08:35:34;6.00;;;4.40;;
20302;SDS011;10310;50.906;4.622;2022-08-05T08:38:01;9.73;;;5.00;;
20302;SDS011;10310;50.906;4.622;2022-08-05T08:40:29;7.07;;;4.20;;
20302;SDS011;10310;50.906;4.622;2022-08-05T08:42:58;5.83;;;4.00;;
20302;SDS011;10310;50.906;4.622;2022-08-05T08:45:25;5.13;;;3.93;;
20302;SDS011;10310;50.906;4.622;2022-08-05T08:47:54;6.33;;;3.97;;
20302;SDS011;10310;50.906;4.622;2022-08-05T08:50:23;5.87;;;3.90;;
20302;SDS011;10310;50.906;4.622;2022-08-05T08:52:51;7.27;;;3.73;;
20302;SDS011;10310;50.906;4.622;2022-08-05T08:55:21;5.50;;;3.23;;
20302;SDS011;10310;50.906;4.622;2022-08-05T08:57:48;6.53;;;3.20;;
20302;SDS011;10310;50.906;4.622;2022-08-05T09:00:15;7.27;;;3.27;;
20302;SDS011;10310;50.906;4.622;2022-08-05T09:02:43;6.27;;;2.30;;
20302;SDS011;10310;50.906;4.622;2022-08-05T09:05:12;5.77;;;2.43;;
20302;SDS011;10310;50.906;4.622;2022-08-05T09:07:39;4.40;;;2.37;;
20302;SDS011;10310;50.906;4.622;2022-08-05T09:10:06;4.50;;;2.50;;
20302;SDS011;10310;50.906;4.622;2022-08-05T09:12:33;3.33;;;2.20;;
20302;SDS011;10310;50.906;4.622;2022-08-05T09:15:01;6.30;;;2.60;;
20302;SDS011;10310;50.906;4.622;2022-08-05T09:17:28;5.20;;;2.63;;
20302;SDS011;10310;50.906;4.622;2022-08-05T09:19:56;5.23;;;2.77;;
20302;SDS011;10310;50.906;4.622;2022-08-05T09:22:24;5.93;;;2.60;;
20302;SDS011;10310;50.906;4.622;2022-08-05T09:24:57;3.83;;;2.70;;
20302;SDS011;10310;50.906;4.622;2022-08-05T09:27:29;5.40;;;3.03;;
20302;SDS011;10310;50.906;4.622;2022-08-05T09:29:58;4.53;;;3.03;;
20302;SDS011;10310;50.906;4.622;2022-08-05T09:32:32;6.00;;;2.90;;
20302;SDS011;10310;50.906;4.622;2022-08-05T09:35:01;4.23;;;2.80;;
20302;SDS011;10310;50.906;4.622;2022-08-05T09:37:38;3.77;;;2.07;;
20302;SDS011;10310;50.906;4.622;2022-08-05T09:40:28;3.97;;;2.30;;
20302;SDS011;10310;50.906;4.622;2022-08-05T09:43:00;5.63;;;2.33;;
20302;SDS011;10310;50.906;4.622;2022-08-05T09:45:34;5.13;;;2.20;;
20302;SDS011;10310;50.906;4.622;2022-08-05T09:48:18;6.37;;;2.23;;
20302;SDS011;10310;50.906;4.622;2022-08-05T09:50:49;4.77;;;2.00;;
20302;SDS011;10310;50.906;4.622;2022-08-05T09:53:18;5.57;;;2.27;;
20302;SDS011;10310;50.906;4.622;2022-08-05T09:55:45;2.70;;;2.17;;
20302;SDS011;10310;50.906;4.622;2022-08-05T09:58:15;3.20;;;1.80;;
20302;SDS011;10310;50.906;4.622;2022-08-05T10:00:56;3.37;;;1.70;;
20302;SDS011;10310;50.906;4.622;2022-08-05T10:03:24;3.73;;;1.60;;
20302;SDS011;10310;50.906;4.622;2022-08-05T10:06:01;5.07;;;2.10;;
20302;SDS011;10310;50.906;4.622;2022-08-05T10:08:33;4.30;;;2.10;;
20302;SDS011;10310;50.906;4.622;2022-08-05T10:11:02;3.10;;;2.00;;
20302;SDS011;10310;50.906;4.622;2022-08-05T10:13:31;3.30;;;1.97;;
20302;SDS011;10310;50.906;4.622;2022-08-05T10:16:01;4.23;;;2.20;;
20302;SDS011;10310;50.906;4.622;2022-08-05T10:18:29;6.03;;;2.73;;
20302;SDS011;10310;50.906;4.622;2022-08-05T10:20:58;4.37;;;2.27;;
20302;SDS011;10310;50.906;4.622;2022-08-05T10:23:27;3.40;;;2.03;;
20302;SDS011;10310;50.906;4.622;2022-08-05T10:25:58;4.17;;;2.00;;
20302;SDS011;10310;50.906;4.622;2022-08-05T10:28:26;2.10;;;1.87;;
20302;SDS011;10310;50.906;4.622;2022-08-05T10:30:54;3.60;;;1.70;;
20302;SDS011;10310;50.906;4.622;2022-08-05T10:33:22;2.33;;;1.57;;
20302;SDS011;10310;50.906;4.622;2022-08-05T10:35:51;4.43;;;2.13;;
20302;SDS011;10310;50.906;4.622;2022-08-05T10:38:19;3.87;;;1.70;;
20302;SDS011;10310;50.906;4.622;2022-08-05T10:40:51;3.33;;;2.10;;
20302;SDS011;10310;50.906;4.622;2022-08-05T10:43:27;3.83;;;2.17;;
20302;SDS011;10310;50.906;4.622;2022-08-05T10:46:01;8.57;;;2.30;;
20302;SDS011;10310;50.906;4.622;2022-08-05T10:48:30;3.70;;;2.10;;
20302;SDS011;10310;50.906;4.622;2022-08-05T10:51:00;2.63;;;2.07;;
20302;SDS011;10310;50.906;4.622;2022-08-05T10:53:33;3.17;;;1.97;;
20302;SDS011;10310;50.906;4.622;2022-08-05T10:56:05;4.23;;;2.30;;
20302;SDS011;10310;50.906;4.622;2022-08-05T10:58:35;3.20;;;2.30;;
20302;SDS011;10310;50.906;4.622;2022-08-05T11:01:14;4.50;;;2.40;;
20302;SDS011;10310;50.906;4.622;2022-08-05T11:06:28;4.13;;;2.87;;
20302;SDS011;10310;50.906;4.622;2022-08-05T11:11:46;3.97;;;2.77;;
20302;SDS011;10310;50.906;4.622;2022-08-05T11:14:22;3.10;;;2.80;;
20302;SDS011;10310;50.906;4.622;2022-08-05T11:19:56;5.07;;;2.60;;
20302;SDS011;10310;50.906;4.622;2022-08-05T11:22:37;3.50;;;2.30;;
20302;SDS011;10310;50.906;4.622;2022-08-05T11:25:28;3.33;;;2.23;;
20302;SDS011;10310;50.906;4.622;2022-08-05T11:28:32;2.43;;;2.10;;
20302;SDS011;10310;50.906;4.622;2022-08-05T11:31:29;4.47;;;1.90;;
20302;SDS011;10310;50.906;4.622;2022-08-05T11:34:00;4.63;;;2.10;;
20302;SDS011;10310;50.906;4.622;2022-08-05T11:39:18;2.53;;;1.70;;
20302;SDS011;10310;50.906;4.622;2022-08-05T11:42:14;5.67;;;1.53;;
20302;SDS011;10310;50.906;4.622;2022-08-05T11:44:42;4.73;;;2.10;;
20302;SDS011;10310;50.906;4.622;2022-08-05T11:47:12;2.37;;;1.73;;
20302;SDS011;10310;50.906;4.622;2022-08-05T11:49:39;4.30;;;1.97;;
20302;SDS011;10310;50.906;4.622;2022-08-05T11:52:07;7.03;;;2.03;;
20302;SDS011;10310;50.906;4.622;2022-08-05T11:54:36;3.70;;;1.57;;
20302;SDS011;10310;50.906;4.622;2022-08-05T11:57:05;3.83;;;1.80;;
20302;SDS011;10310;50.906;4.622;2022-08-05T11:59:32;3.60;;;1.90;;
20302;SDS011;10310;50.906;4.622;2022-08-05T12:02:00;2.77;;;1.63;;
20302;SDS011;10310;50.906;4.622;2022-08-05T12:04:37;2.70;;;1.80;;
20302;SDS011;10310;50.906;4.622;2022-08-05T12:07:05;3.00;;;1.90;;
20302;SDS011;10310;50.906;4.622;2022-08-05T12:09:35;5.00;;;1.80;;
20302;SDS011;10310;50.906;4.622;2022-08-05T12:12:04;5.13;;;1.50;;
20302;SDS011;10310;50.906;4.622;2022-08-05T12:14:35;3.53;;;1.30;;
20302;SDS011;10310;50.906;4.622;2022-08-05T12:17:07;2.87;;;1.40;;
20302;SDS011;10310;50.906;4.622;2022-08-05T12:19:43;3.27;;;1.67;;
20302;SDS011;10310;50.906;4.622;2022-08-05T12:22:11;4.50;;;1.57;;
20302;SDS011;10310;50.906;4.622;2022-08-05T12:24:39;1.57;;;1.30;;
20302;SDS011;10310;50.906;4.622;2022-08-05T12:27:08;2.53;;;1.70;;
20302;SDS011;10310;50.906;4.622;2022-08-05T12:29:35;5.17;;;1.30;;
20302;SDS011;10310;50.906;4.622;2022-08-05T12:32:03;3.03;;;1.40;;
20302;SDS011;10310;50.906;4.622;2022-08-05T12:34:33;3.87;;;1.40;;
20302;SDS011;10310;50.906;4.622;2022-08-05T12:37:04;2.37;;;1.60;;
20302;SDS011;10310;50.906;4.622;2022-08-05T12:39:34;2.03;;;1.40;;
20302;SDS011;10310;50.906;4.622;2022-08-05T12:42:02;5.03;;;1.40;;
20302;SDS011;10310;50.906;4.622;2022-08-05T12:44:35;2.83;;;1.50;;
20302;SDS011;10310;50.906;4.622;2022-08-05T12:47:02;4.57;;;1.30;;
20302;SDS011;10310;50.906;4.622;2022-08-05T12:49:39;2.73;;;1.30;;
20302;SDS011;10310;50.906;4.622;2022-08-05T12:52:13;3.30;;;1.50;;
20302;SDS011;10310;50.906;4.622;2022-08-05T12:54:41;5.23;;;1.80;;
20302;SDS011;10310;50.906;4.622;2022-08-05T12:57:10;2.70;;;1.40;;
20302;SDS011;10310;50.906;4.622;2022-08-05T12:59:44;2.10;;;1.53;;
20302;SDS011;10310;50.906;4.622;2022-08-05T13:02:15;3.33;;;1.40;;
20302;SDS011;10310;50.906;4.622;2022-08-05T13:04:44;2.03;;;1.40;;
20302;SDS011;10310;50.906;4.622;2022-08-05T13:07:14;5.43;;;1.60;;
20302;SDS011;10310;50.906;4.622;2022-08-05T13:09:46;2.20;;;1.20;;
20302;SDS011;10310;50.906;4.622;2022-08-05T13:12:14;3.37;;;1.20;;
20302;SDS011;10310;50.906;4.622;2022-08-05T13:14:43;3.70;;;1.70;;
20302;SDS011;10310;50.906;4.622;2022-08-05T13:17:15;2.50;;;1.30;;
20302;SDS011;10310;50.906;4.622;2022-08-05T13:19:56;2.60;;;1.30;;
20302;SDS011;10310;50.906;4.622;2022-08-05T13:22:26;5.60;;;1.50;;
20302;SDS011;10310;50.906;4.622;2022-08-05T13:24:53;3.57;;;1.33;;
20302;SDS011;10310;50.906;4.622;2022-08-05T13:27:24;2.63;;;1.00;;
20302;SDS011;10310;50.906;4.622;2022-08-05T13:29:51;1.63;;;1.00;;
20302;SDS011;10310;50.906;4.622;2022-08-05T13:32:18;3.07;;;1.17;;
20302;SDS011;10310;50.906;4.622;2022-08-05T13:34:46;2.43;;;0.90;;
20302;SDS011;10310;50.906;4.622;2022-08-05T13:37:15;2.63;;;1.13;;
20302;SDS011;10310;50.906;4.622;2022-08-05T13:39:43;2.47;;;1.07;;
20302;SDS011;10310;50.906;4.622;2022-08-05T13:42:11;1.63;;;1.00;;
20302;SDS011;10310;50.906;4.622;2022-08-05T13:44:38;1.23;;;1.00;;
20302;SDS011;10310;50.906;4.622;2022-08-05T13:47:05;1.43;;;0.70;;
20302;SDS011;10310;50.906;4.622;2022-08-05T13:49:32;1.90;;;0.90;;
20302;SDS011;10310;50.906;4.622;2022-08-05T13:52:08;1.27;;;0.90;;
20302;SDS011;10310;50.906;4.622;2022-08-05T13:54:36;2.77;;;0.80;;
20302;SDS011;10310;50.906;4.622;2022-08-05T13:57:04;2.37;;;0.80;;
20302;SDS011;10310;50.906;4.622;2022-08-05T13:59:32;2.53;;;1.00;;
20302;SDS011;10310;50.906;4.622;2022-08-05T14:02:00;3.10;;;1.10;;
20302;SDS011;10310;50.906;4.622;2022-08-05T14:04:28;0.87;;;0.70;;
20302;SDS011;10310;50.906;4.622;2022-08-05T14:07:13;1.70;;;1.07;;
20302;SDS011;10310;50.906;4.622;2022-08-05T14:09:40;1.83;;;0.80;;
20302;SDS011;10310;50.906;4.622;2022-08-05T14:12:08;2.77;;;1.00;;
20302;SDS011;10310;50.906;4.622;2022-08-05T14:14:35;2.20;;;1.13;;
20302;SDS011;10310;50.906;4.622;2022-08-05T14:17:03;1.23;;;0.90;;
20302;SDS011;10310;50.906;4.622;2022-08-05T14:19:30;3.03;;;1.13;;
20302;SDS011;10310;50.906;4.622;2022-08-05T14:21:57;1.80;;;1.00;;
20302;SDS011;10310;50.906;4.622;2022-08-05T14:24:24;1.77;;;0.80;;
20302;SDS011;10310;50.906;4.622;2022-08-05T14:26:51;3.53;;;0.97;;
20302;SDS011;10310;50.906;4.622;2022-08-05T14:29:20;2.27;;;1.00;;
20302;SDS011;10310;50.906;4.622;2022-08-05T14:31:47;1.70;;;0.90;;
20302;SDS011;10310;50.906;4.622;2022-08-05T14:34:13;2.00;;;0.80;;
20302;SDS011;10310;50.906;4.622;2022-08-05T14:36:40;2.87;;;0.80;;
20302;SDS011;10310;50.906;4.622;2022-08-05T14:39:07;2.27;;;0.83;;
20302;SDS011;10310;50.906;4.622;2022-08-05T14:41:34;3.20;;;0.90;;
20302;SDS011;10310;50.906;4.622;2022-08-05T14:44:02;2.50;;;0.80;;
20302;SDS011;10310;50.906;4.622;2022-08-05T14:46:30;2.07;;;1.10;;
20302;SDS011;10310;50.906;4.622;2022-08-05T14:48:58;1.73;;;1.00;;
20302;SDS011;10310;50.906;4.622;2022-08-05T14:51:26;3.23;;;0.87;;
20302;SDS011;10310;50.906;4.622;2022-08-05T14:53:53;2.80;;;1.00;;
20302;SDS011;10310;50.906;4.622;2022-08-05T14:56:20;1.80;;;1.00;;
20302;SDS011;10310;50.906;4.622;2022-08-05T14:58:47;0.77;;;0.70;;
20302;SDS011;10310;50.906;4.622;2022-08-05T15:01:15;1.83;;;1.13;;
20302;SDS011;10310;50.906;4.622;2022-08-05T15:03:44;2.27;;;0.90;;